Time;durP1;ratioP1;P1;durP2;ratioP2;P2;SDS_P1;SDS_P2;PMS_P1;PMS_P2;Temp;Humidity;BMP_temperature;BMP_pressure;BME280_temperature;BME280_humidity;BME280_pressure;Samples;Min_cycle;Max_cycle;Signal;HPM_P1;HPM_P2
2023/09/23 00:02:00;;;;;;;1.67;1.40;;;12.80;99.90;;;;;;4991711;28;20469;-62
2023/09/23 00:04:33;;;;;;;1.47;1.40;;;12.80;99.90;;;;;;4991184;28;20482;-61
2023/09/23 00:07:00;;;;;;;2.50;1.33;;;12.80;99.90;;;;;;4991873;28;20529;-62
2023/09/23 00:09:28;;;;;;;3.17;1.10;;;12.80;99.90;;;;;;4992026;28;20490;-62
2023/09/23 00:11:55;;;;;;;1.00;1.00;;;12.80;99.90;;;;;;4991549;28;21000;-62
2023/09/23 00:14:22;;;;;;;2.60;2.00;;;12.80;99.90;;;;;;4991311;28;20545;-61
2023/09/23 00:16:49;;;;;;;1.30;1.20;;;12.80;99.90;;;;;;4991690;28;20474;-62
2023/09/23 00:19:16;;;;;;;1.73;1.30;;;12.80;99.90;;;;;;4992360;28;20442;-62
2023/09/23 00:21:45;;;;;;;1.60;1.13;;;12.80;99.90;;;;;;4991844;28;20450;-62
2023/09/23 00:24:13;;;;;;;2.10;1.77;;;12.70;99.90;;;;;;4991702;28;20461;-62
2023/09/23 00:26:40;;;;;;;3.30;1.50;;;12.70;99.90;;;;;;4987172;28;20507;-62
2023/09/23 00:29:08;;;;;;;1.63;1.30;;;12.70;99.90;;;;;;4984899;28;20478;-62
2023/09/23 00:31:35;;;;;;;1.40;1.30;;;12.70;99.90;;;;;;4991029;28;20538;-62
2023/09/23 00:34:02;;;;;;;3.40;1.20;;;12.70;99.90;;;;;;4991807;28;20481;-62
2023/09/23 00:36:30;;;;;;;1.80;1.53;;;12.70;99.90;;;;;;4991567;28;20482;-62
2023/09/23 00:38:58;;;;;;;2.40;1.30;;;12.70;99.90;;;;;;4991734;28;20884;-62
2023/09/23 00:41:25;;;;;;;1.23;1.00;;;12.70;99.90;;;;;;4991687;28;20529;-62
2023/09/23 00:43:53;;;;;;;1.70;1.30;;;12.70;99.90;;;;;;4983529;28;20446;-62
2023/09/23 00:46:22;;;;;;;1.30;1.20;;;12.70;99.90;;;;;;4990721;28;20480;-62
2023/09/23 00:48:51;;;;;;;1.10;1.10;;;12.70;99.90;;;;;;4990208;28;20447;-62
2023/09/23 00:51:18;;;;;;;1.00;1.00;;;12.70;99.90;;;;;;4990521;28;20964;-62
2023/09/23 00:53:46;;;;;;;1.50;1.40;;;12.70;99.90;;;;;;4990866;28;20454;-62
2023/09/23 00:56:16;;;;;;;2.30;1.20;;;12.70;99.90;;;;;;4988614;28;20470;-62
2023/09/23 00:58:43;;;;;;;1.97;1.30;;;12.70;99.90;;;;;;4990907;28;20510;-62
2023/09/23 01:01:10;;;;;;;3.07;1.50;;;12.70;99.90;;;;;;4991244;28;20450;-62
2023/09/23 01:03:38;;;;;;;1.40;1.30;;;12.60;99.90;;;;;;4991761;28;20455;-62
2023/09/23 01:06:08;;;;;;;1.83;1.40;;;12.70;99.90;;;;;;4991882;28;20992;-61
2023/09/23 01:08:38;;;;;;;1.90;1.03;;;12.70;99.90;;;;;;4992124;28;20521;-61
2023/09/23 01:11:08;;;;;;;1.67;1.53;;;12.70;99.90;;;;;;4991879;28;20490;-62
2023/09/23 01:13:37;;;;;;;0.80;0.80;;;12.70;99.90;;;;;;4991748;28;20505;-61
2023/09/23 01:16:09;;;;;;;1.77;1.07;;;12.80;99.90;;;;;;4991506;28;20474;-62
2023/09/23 01:18:36;;;;;;;0.93;0.93;;;12.70;99.90;;;;;;4972545;28;20456;-62
2023/09/23 01:21:03;;;;;;;1.67;1.13;;;12.80;99.90;;;;;;4977042;28;20474;-63
2023/09/23 01:23:34;;;;;;;0.70;0.70;;;12.80;99.90;;;;;;4990052;28;20451;-61
2023/09/23 01:26:02;;;;;;;1.57;1.30;;;12.80;99.90;;;;;;4990156;28;20463;-62
2023/09/23 01:28:32;;;;;;;1.13;1.13;;;12.80;99.90;;;;;;4990785;28;20538;-62
2023/09/23 01:30:59;;;;;;;1.33;1.07;;;12.80;99.90;;;;;;4991137;28;20486;-61
2023/09/23 01:33:28;;;;;;;4.23;1.17;;;12.90;99.90;;;;;;4991592;28;20447;-62
2023/09/23 01:35:57;;;;;;;1.10;1.10;;;12.90;99.90;;;;;;4991745;28;20513;-62
2023/09/23 01:40:51;;;;;;;1.30;1.20;;;12.80;99.90;;;;;;5033180;23;20595;-63
2023/09/23 01:43:19;;;;;;;1.90;1.70;;;12.80;99.90;;;;;;5014432;28;20959;-63
2023/09/23 01:45:45;;;;;;;2.27;1.27;;;12.80;99.90;;;;;;5007135;28;20540;-63
2023/09/23 01:48:12;;;;;;;1.20;1.10;;;12.80;99.90;;;;;;5015246;28;20446;-63
2023/09/23 01:50:39;;;;;;;1.00;1.00;;;12.90;99.90;;;;;;5015020;28;20577;-63
2023/09/23 01:53:08;;;;;;;2.07;1.60;;;12.90;99.90;;;;;;5014883;28;20450;-62
2023/09/23 01:55:36;;;;;;;1.27;1.20;;;12.90;99.90;;;;;;5015206;28;20545;-63
2023/09/23 01:58:05;;;;;;;1.17;1.07;;;12.80;99.90;;;;;;5015159;28;20458;-63
2023/09/23 02:00:32;;;;;;;3.27;1.23;;;12.80;99.90;;;;;;5014848;28;21002;-63
2023/09/23 02:02:59;;;;;;;1.30;1.13;;;12.80;99.90;;;;;;5014650;28;20541;-63
2023/09/23 02:05:27;;;;;;;1.40;1.20;;;12.80;99.90;;;;;;5014856;28;21015;-63
2023/09/23 02:07:54;;;;;;;1.40;0.87;;;12.80;99.90;;;;;;5014715;28;20447;-63
2023/09/23 02:10:24;;;;;;;1.23;1.13;;;12.80;99.90;;;;;;5013415;28;21052;-62
2023/09/23 02:12:51;;;;;;;2.83;1.40;;;12.80;99.90;;;;;;5005712;28;20964;-63
2023/09/23 02:15:20;;;;;;;2.60;1.37;;;12.90;99.90;;;;;;5004357;28;20456;-62
2023/09/23 02:17:48;;;;;;;1.43;1.33;;;12.80;99.90;;;;;;5005260;28;20484;-63
2023/09/23 02:20:18;;;;;;;2.77;1.37;;;12.80;99.90;;;;;;5006486;28;20820;-63
2023/09/23 02:22:47;;;;;;;1.00;1.00;;;12.80;99.90;;;;;;5013520;28;20446;-62
2023/09/23 02:25:14;;;;;;;1.60;1.50;;;12.70;99.90;;;;;;5013911;28;21121;-63
2023/09/23 02:27:44;;;;;;;4.23;1.10;;;12.70;99.90;;;;;;5012186;28;20446;-62
2023/09/23 02:30:12;;;;;;;1.20;1.20;;;12.70;99.90;;;;;;5013865;28;20947;-63
2023/09/23 02:32:42;;;;;;;1.57;1.00;;;12.70;99.90;;;;;;5013892;28;20456;-63
2023/09/23 02:35:11;;;;;;;1.33;1.00;;;12.60;99.90;;;;;;5014587;28;20517;-63
2023/09/23 02:37:40;;;;;;;1.20;1.20;;;12.60;99.90;;;;;;5014508;28;20540;-63
2023/09/23 02:40:11;;;;;;;1.50;1.43;;;12.60;99.90;;;;;;5014021;28;20482;-63
2023/09/23 02:42:40;;;;;;;1.00;1.00;;;12.60;99.90;;;;;;5014061;28;20454;-62
2023/09/23 02:45:09;;;;;;;1.17;1.10;;;12.60;99.90;;;;;;5014155;28;20548;-63
2023/09/23 02:47:37;;;;;;;1.53;1.43;;;12.70;99.90;;;;;;5013854;28;20511;-63
2023/09/23 02:50:09;;;;;;;1.30;1.20;;;12.70;99.90;;;;;;5013835;28;20501;-63
2023/09/23 02:52:38;;;;;;;1.13;1.00;;;12.70;99.90;;;;;;5013285;28;20450;-62
2023/09/23 02:55:07;;;;;;;1.90;1.30;;;12.70;99.90;;;;;;5014045;28;20508;-63
2023/09/23 02:57:36;;;;;;;1.20;1.10;;;12.60;99.90;;;;;;5014006;28;20544;-63
2023/09/23 03:00:16;;;;;;;1.23;1.13;;;12.60;99.90;;;;;;5013721;28;20531;-63
2023/09/23 03:02:45;;;;;;;1.30;1.10;;;12.60;99.90;;;;;;5013474;28;20936;-62
2023/09/23 03:05:16;;;;;;;1.97;1.70;;;12.60;99.90;;;;;;5013569;28;20450;-62
2023/09/23 03:07:43;;;;;;;1.53;1.17;;;12.50;99.90;;;;;;5013039;28;20464;-62
2023/09/23 03:10:12;;;;;;;1.17;1.10;;;12.50;99.90;;;;;;5012385;28;20577;-62
2023/09/23 03:12:43;;;;;;;2.47;1.50;;;12.40;99.90;;;;;;5012481;28;20522;-63
2023/09/23 03:15:14;;;;;;;1.37;1.37;;;12.40;99.90;;;;;;5012907;28;20469;-63
2023/09/23 03:17:42;;;;;;;1.17;1.17;;;12.40;99.90;;;;;;5013619;28;20453;-63
2023/09/23 03:20:21;;;;;;;1.43;1.23;;;12.30;99.90;;;;;;5013404;28;20473;-63
2023/09/23 03:22:52;;;;;;;2.97;1.90;;;12.30;99.90;;;;;;5013239;28;20888;-63
2023/09/23 03:25:20;;;;;;;1.90;1.60;;;12.30;99.90;;;;;;5013268;28;20877;-63
2023/09/23 03:27:48;;;;;;;1.50;1.40;;;12.30;99.90;;;;;;5013008;28;20961;-63
2023/09/23 03:30:16;;;;;;;1.33;1.33;;;12.20;99.90;;;;;;5013086;28;20489;-63
2023/09/23 03:32:44;;;;;;;1.60;1.50;;;12.20;99.90;;;;;;5012918;28;20877;-63
2023/09/23 03:35:16;;;;;;;1.50;1.50;;;12.20;99.90;;;;;;5013256;28;20533;-63
2023/09/23 03:37:45;;;;;;;1.60;1.50;;;12.20;99.90;;;;;;5013169;28;20796;-63
2023/09/23 03:40:15;;;;;;;1.60;1.50;;;12.20;99.90;;;;;;5012928;28;20916;-63
2023/09/23 03:42:42;;;;;;;1.30;1.30;;;12.10;99.90;;;;;;5012776;28;20457;-63
2023/09/23 03:45:11;;;;;;;4.90;2.00;;;12.10;99.90;;;;;;5013094;28;20454;-63
2023/09/23 03:47:38;;;;;;;2.77;1.73;;;12.00;99.90;;;;;;5012810;28;20456;-63
2023/09/23 03:50:07;;;;;;;1.20;1.20;;;12.00;99.90;;;;;;5012681;28;20473;-63
2023/09/23 03:52:35;;;;;;;1.53;1.47;;;12.00;99.90;;;;;;5012551;28;20881;-62
2023/09/23 03:55:02;;;;;;;1.43;1.33;;;11.90;99.90;;;;;;5013227;28;20454;-63
2023/09/23 03:57:31;;;;;;;1.43;1.33;;;11.80;99.90;;;;;;5013047;28;20450;-63
2023/09/23 03:59:58;;;;;;;1.30;1.20;;;11.80;99.90;;;;;;5012727;28;20474;-63
2023/09/23 04:02:25;;;;;;;2.93;1.37;;;11.80;99.90;;;;;;5012603;28;20960;-62
2023/09/23 04:04:53;;;;;;;2.20;1.30;;;11.70;99.90;;;;;;5012380;28;20448;-62
2023/09/23 04:07:20;;;;;;;2.70;1.73;;;11.70;99.90;;;;;;5012799;28;20891;-63
2023/09/23 04:09:48;;;;;;;1.60;1.50;;;11.60;99.90;;;;;;5012460;28;20476;-62
2023/09/23 04:12:17;;;;;;;1.43;1.10;;;11.50;99.90;;;;;;5012546;28;20504;-62
2023/09/23 04:14:45;;;;;;;1.80;1.70;;;11.50;99.90;;;;;;5012392;28;20480;-63
2023/09/23 04:17:12;;;;;;;1.40;1.40;;;11.40;99.90;;;;;;5012410;28;21112;-63
2023/09/23 04:19:39;;;;;;;1.93;1.83;;;11.30;99.90;;;;;;5012238;28;20990;-62
2023/09/23 04:22:05;;;;;;;3.00;1.83;;;11.30;99.90;;;;;;5012516;28;20449;-63
2023/09/23 04:24:32;;;;;;;1.43;1.43;;;11.20;99.90;;;;;;5012254;28;20454;-62
2023/09/23 04:26:59;;;;;;;1.40;1.40;;;11.20;99.90;;;;;;5012418;28;20453;-62
2023/09/23 04:29:28;;;;;;;3.60;1.33;;;11.10;99.90;;;;;;5012308;28;20470;-62
2023/09/23 04:31:57;;;;;;;1.87;1.57;;;11.10;99.90;;;;;;5012349;28;21037;-62
2023/09/23 04:34:24;;;;;;;2.40;1.40;;;11.00;99.90;;;;;;5011935;28;20464;-62
2023/09/23 04:36:52;;;;;;;2.63;1.63;;;11.00;99.90;;;;;;5012366;28;21000;-62
2023/09/23 04:39:19;;;;;;;1.63;1.20;;;10.90;99.90;;;;;;5012166;28;20473;-63
2023/09/23 04:41:46;;;;;;;1.40;1.37;;;10.90;99.90;;;;;;5012189;28;20448;-62
2023/09/23 04:44:13;;;;;;;1.53;1.43;;;10.80;99.90;;;;;;5011694;28;20455;-63
2023/09/23 04:46:40;;;;;;;1.40;1.30;;;10.70;99.90;;;;;;5011858;28;20825;-62
2023/09/23 04:49:09;;;;;;;1.43;1.20;;;10.70;99.90;;;;;;5012106;28;20479;-62
2023/09/23 04:51:36;;;;;;;1.40;1.30;;;10.60;99.90;;;;;;5011990;28;20497;-62
2023/09/23 04:54:03;;;;;;;1.60;1.50;;;10.60;99.90;;;;;;5011702;28;20484;-62
2023/09/23 04:56:30;;;;;;;1.60;1.43;;;10.60;99.90;;;;;;5012007;28;20445;-62
2023/09/23 04:58:58;;;;;;;2.77;1.87;;;10.50;99.90;;;;;;5011571;28;20472;-62
2023/09/23 05:01:26;;;;;;;1.27;1.20;;;10.50;99.90;;;;;;5011751;28;20477;-62
2023/09/23 05:03:55;;;;;;;1.53;1.43;;;10.40;99.90;;;;;;5011462;28;21082;-63
2023/09/23 05:06:23;;;;;;;1.33;1.30;;;10.40;99.90;;;;;;5011682;28;20461;-62
2023/09/23 05:08:50;;;;;;;1.20;1.20;;;10.30;99.90;;;;;;5011706;28;20473;-62
2023/09/23 05:11:17;;;;;;;5.50;1.70;;;10.30;99.90;;;;;;5011762;28;20491;-62
2023/09/23 05:13:44;;;;;;;2.90;1.63;;;10.30;99.90;;;;;;5010720;28;20912;-62
2023/09/23 05:16:11;;;;;;;1.30;1.20;;;10.20;99.90;;;;;;5011827;28;20457;-63
2023/09/23 05:18:38;;;;;;;2.00;1.43;;;10.20;99.90;;;;;;5011609;28;20938;-62
2023/09/23 05:21:05;;;;;;;2.10;1.73;;;10.10;99.90;;;;;;5011644;28;20829;-62
2023/09/23 05:23:33;;;;;;;2.10;1.67;;;10.10;99.90;;;;;;5011132;28;20452;-62
2023/09/23 05:26:00;;;;;;;1.77;1.67;;;10.00;99.90;;;;;;5011289;28;20511;-63
2023/09/23 05:28:28;;;;;;;4.07;1.70;;;10.00;99.90;;;;;;5011149;28;20479;-62
2023/09/23 05:30:54;;;;;;;2.47;1.90;;;10.00;99.90;;;;;;5011509;28;20854;-62
2023/09/23 05:33:21;;;;;;;2.83;2.20;;;10.00;99.90;;;;;;5010269;28;20484;-62
2023/09/23 05:35:48;;;;;;;2.00;1.90;;;10.00;99.90;;;;;;5010832;28;20445;-62
2023/09/23 05:38:15;;;;;;;1.87;1.77;;;10.00;99.90;;;;;;5011496;28;20449;-62
2023/09/23 05:40:43;;;;;;;1.73;1.63;;;10.00;99.90;;;;;;5011306;28;20486;-63
2023/09/23 05:43:11;;;;;;;1.90;1.80;;;10.10;99.90;;;;;;5011285;28;20543;-62
2023/09/23 05:45:38;;;;;;;1.13;1.13;;;10.10;99.90;;;;;;5011568;28;20216;-63
2023/09/23 05:48:05;;;;;;;1.90;1.30;;;10.10;99.90;;;;;;5011484;28;20448;-62
2023/09/23 05:50:32;;;;;;;1.50;1.40;;;10.10;99.90;;;;;;5011191;28;20564;-62
2023/09/23 05:52:58;;;;;;;1.90;1.40;;;10.10;99.90;;;;;;5010987;28;20961;-62
2023/09/23 05:55:25;;;;;;;1.63;1.53;;;10.10;99.90;;;;;;5011201;28;20542;-62
2023/09/23 05:57:54;;;;;;;3.93;1.40;;;10.00;99.90;;;;;;5011180;28;20548;-62
2023/09/23 06:00:21;;;;;;;1.77;1.47;;;10.00;99.90;;;;;;5011340;28;20473;-62
2023/09/23 06:02:48;;;;;;;1.47;1.37;;;10.00;99.90;;;;;;5011053;28;20526;-62
2023/09/23 06:05:15;;;;;;;2.35;1.85;;;10.00;99.90;;;;;;5011200;28;20506;-62
2023/09/23 06:07:42;;;;;;;1.80;1.70;;;10.00;99.90;;;;;;5011084;28;20293;-62
2023/09/23 06:10:10;;;;;;;2.00;1.90;;;10.00;99.90;;;;;;5011354;28;20476;-62
2023/09/23 06:12:37;;;;;;;2.00;1.90;;;10.00;99.90;;;;;;5010792;28;20232;-63
2023/09/23 06:15:07;;;;;;;8.00;2.30;;;10.10;99.90;;;;;;5011064;28;20452;-62
2023/09/23 06:17:37;;;;;;;2.23;2.13;;;10.10;99.90;;;;;;5011235;28;20445;-63
2023/09/23 06:20:05;;;;;;;2.27;2.07;;;10.10;99.90;;;;;;5011024;28;20501;-63
2023/09/23 06:22:34;;;;;;;2.40;1.87;;;10.10;99.90;;;;;;5010526;28;20478;-63
2023/09/23 06:25:02;;;;;;;2.27;2.17;;;10.20;99.90;;;;;;5011170;28;20874;-62
2023/09/23 06:27:29;;;;;;;3.50;2.37;;;10.20;99.90;;;;;;5012707;28;20455;-62
2023/09/23 06:29:56;;;;;;;2.13;2.03;;;10.20;99.90;;;;;;5011124;28;20544;-62
2023/09/23 06:32:24;;;;;;;2.80;2.60;;;10.30;99.90;;;;;;5009617;28;20597;-62
2023/09/23 06:34:51;;;;;;;2.07;1.97;;;10.30;99.90;;;;;;5014122;28;20452;-63
2023/09/23 06:37:18;;;;;;;2.80;2.60;;;10.30;99.90;;;;;;5014554;28;20456;-62
2023/09/23 06:39:45;;;;;;;2.77;2.20;;;10.40;99.90;;;;;;5014113;28;20481;-63
2023/09/23 06:42:12;;;;;;;2.20;2.00;;;10.40;99.90;;;;;;5014172;28;20951;-62
2023/09/23 06:44:38;;;;;;;2.57;2.37;;;10.50;99.90;;;;;;5013989;28;20449;-63
2023/09/23 06:47:05;;;;;;;2.60;2.40;;;10.50;99.90;;;;;;5014335;28;20453;-62
2023/09/23 06:49:33;;;;;;;2.73;2.53;;;10.50;99.90;;;;;;5013688;28;20560;-62
2023/09/23 06:52:00;;;;;;;2.03;1.93;;;10.60;99.90;;;;;;5013976;28;21011;-62
2023/09/23 06:54:27;;;;;;;2.47;2.27;;;10.60;99.90;;;;;;5013686;28;20463;-62
2023/09/23 06:56:54;;;;;;;2.63;2.00;;;10.60;99.90;;;;;;5014033;28;20851;-63
2023/09/23 06:59:21;;;;;;;3.23;2.07;;;10.70;99.90;;;;;;5014086;28;20483;-62
2023/09/23 07:01:48;;;;;;;2.03;1.93;;;10.70;99.90;;;;;;5014091;28;20894;-62
2023/09/23 07:04:15;;;;;;;4.87;2.93;;;10.80;99.90;;;;;;5013448;28;20468;-63
2023/09/23 07:06:44;;;;;;;2.90;2.20;;;10.80;99.90;;;;;;5005661;28;20541;-63
2023/09/23 07:09:10;;;;;;;2.93;2.73;;;10.80;99.90;;;;;;5013865;28;20916;-63
2023/09/23 07:11:38;;;;;;;2.20;2.10;;;10.90;99.90;;;;;;5013734;28;20485;-63
2023/09/23 07:14:06;;;;;;;2.00;1.80;;;10.90;99.90;;;;;;5013377;28;20536;-63
2023/09/23 07:16:33;;;;;;;3.20;3.00;;;11.00;99.90;;;;;;5013562;28;20464;-63
2023/09/23 07:19:00;;;;;;;2.73;2.53;;;11.10;99.90;;;;;;5013696;28;20840;-63
2023/09/23 07:21:27;;;;;;;3.13;2.93;;;11.20;99.90;;;;;;5013516;28;21027;-63
2023/09/23 07:23:55;;;;;;;2.53;2.43;;;11.30;99.90;;;;;;5013223;28;20500;-63
2023/09/23 07:26:23;;;;;;;4.57;2.67;;;11.40;99.90;;;;;;5013300;28;20456;-62
2023/09/23 07:28:50;;;;;;;4.00;2.83;;;11.60;99.90;;;;;;5013343;28;20480;-62
2023/09/23 07:31:17;;;;;;;2.70;2.50;;;11.70;99.90;;;;;;5013381;28;20453;-62
2023/09/23 07:33:44;;;;;;;3.00;2.80;;;11.90;99.90;;;;;;5013139;28;20469;-62
2023/09/23 07:36:12;;;;;;;5.03;2.60;;;12.00;99.90;;;;;;5013401;28;20501;-63
2023/09/23 07:38:39;;;;;;;4.20;3.00;;;12.20;99.90;;;;;;5012731;28;20450;-62
2023/09/23 07:41:07;;;;;;;2.47;2.30;;;12.40;99.90;;;;;;5018495;23;21073;-64
2023/09/23 07:43:34;;;;;;;1.87;1.77;;;12.50;99.90;;;;;;4992942;28;20490;-64
2023/09/23 07:46:01;;;;;;;2.13;1.93;;;12.60;99.90;;;;;;4993529;28;20528;-64
2023/09/23 07:48:28;;;;;;;2.00;1.90;;;12.70;99.90;;;;;;4993358;28;20953;-64
2023/09/23 07:50:55;;;;;;;4.33;2.40;;;12.80;99.90;;;;;;4993407;28;20467;-63
2023/09/23 07:53:22;;;;;;;4.60;2.53;;;12.90;99.90;;;;;;4992998;28;20520;-64
2023/09/23 07:55:49;;;;;;;2.33;2.17;;;13.10;99.90;;;;;;4993171;28;20447;-64
2023/09/23 07:58:17;;;;;;;2.87;2.17;;;13.20;99.90;;;;;;4993514;28;20458;-64
2023/09/23 08:00:44;;;;;;;1.87;1.70;;;13.30;99.90;;;;;;4993324;28;20472;-64
2023/09/23 08:03:11;;;;;;;3.60;3.30;;;13.50;99.90;;;;;;4993049;28;20526;-64
2023/09/23 08:05:37;;;;;;;2.30;1.80;;;13.70;99.90;;;;;;4993078;28;20451;-64
2023/09/23 08:08:06;;;;;;;2.30;2.10;;;13.80;99.90;;;;;;4993104;28;20538;-64
2023/09/23 08:10:33;;;;;;;2.97;2.00;;;14.00;99.90;;;;;;4992805;28;20475;-64
2023/09/23 08:12:59;;;;;;;2.27;2.07;;;14.00;99.90;;;;;;4992795;28;20497;-64
2023/09/23 08:15:28;;;;;;;1.80;1.70;;;14.10;99.90;;;;;;4992837;28;20463;-65
2023/09/23 08:17:54;;;;;;;3.23;1.77;;;14.30;99.90;;;;;;4992859;28;20453;-64
2023/09/23 08:20:22;;;;;;;4.77;2.00;;;14.30;99.90;;;;;;4992653;28;20471;-65
2023/09/23 08:22:49;;;;;;;1.67;1.57;;;14.50;99.90;;;;;;4992270;28;20988;-64
2023/09/23 08:25:17;;;;;;;2.37;1.80;;;14.60;99.90;;;;;;4992661;28;20495;-64
2023/09/23 08:27:44;;;;;;;1.77;1.67;;;14.70;99.90;;;;;;4992947;28;20537;-64
2023/09/23 08:30:12;;;;;;;2.13;2.00;;;14.80;99.90;;;;;;5001315;28;20493;-64
2023/09/23 08:32:40;;;;;;;4.87;1.77;;;14.90;99.90;;;;;;4995219;28;20483;-65
2023/09/23 08:35:08;;;;;;;1.43;1.40;;;15.00;99.90;;;;;;4992267;28;20451;-64
2023/09/23 08:37:35;;;;;;;1.80;1.70;;;15.10;99.90;;;;;;4991888;28;20540;-64
2023/09/23 08:40:06;;;;;;;2.50;1.30;;;15.20;99.90;;;;;;4992415;28;20558;-64
2023/09/23 08:42:35;;;;;;;1.57;1.47;;;15.20;99.90;;;;;;5011505;28;20439;-64
2023/09/23 08:45:03;;;;;;;2.07;1.37;;;15.20;99.90;;;;;;5011365;28;20486;-64
2023/09/23 08:47:31;;;;;;;1.80;1.70;;;15.30;99.90;;;;;;5005084;28;20450;-65
2023/09/23 08:49:59;;;;;;;1.70;1.60;;;15.30;99.90;;;;;;4998250;28;20465;-64
2023/09/23 08:52:27;;;;;;;1.57;1.13;;;15.30;99.90;;;;;;5007643;28;20571;-65
2023/09/23 08:54:56;;;;;;;1.63;1.10;;;15.30;99.90;;;;;;4995265;28;20530;-64
2023/09/23 08:57:24;;;;;;;3.30;1.40;;;15.30;99.90;;;;;;5003598;28;20543;-64
2023/09/23 08:59:51;;;;;;;3.80;1.70;;;15.20;99.90;;;;;;5003032;28;20542;-64
2023/09/23 09:02:23;;;;;;;1.10;1.10;;;15.20;99.90;;;;;;4996140;28;20444;-65
2023/09/23 09:04:53;;;;;;;1.20;1.10;;;15.20;99.90;;;;;;5007392;28;20627;-64
2023/09/23 09:07:24;;;;;;;1.93;1.60;;;15.20;99.90;;;;;;4999323;28;20439;-64
2023/09/23 09:09:50;;;;;;;2.10;1.13;;;15.20;99.90;;;;;;4999677;28;20551;-64
2023/09/23 09:12:17;;;;;;;3.60;1.00;;;15.20;99.90;;;;;;5006281;28;20490;-64
2023/09/23 09:14:50;;;;;;;1.53;1.20;;;15.30;99.90;;;;;;4994452;28;20478;-64
2023/09/23 09:17:17;;;;;;;3.30;1.70;;;15.30;99.90;;;;;;5003695;28;20884;-65
2023/09/23 09:19:44;;;;;;;2.93;1.67;;;15.40;99.90;;;;;;5001901;28;20462;-65
2023/09/23 09:22:11;;;;;;;1.40;1.30;;;15.60;99.90;;;;;;4996690;28;20817;-65
2023/09/23 09:24:40;;;;;;;1.60;1.50;;;15.80;99.90;;;;;;5006405;28;20443;-65
2023/09/23 09:27:11;;;;;;;3.23;1.40;;;15.90;99.90;;;;;;4996777;28;20454;-64
2023/09/23 09:29:38;;;;;;;1.77;1.13;;;15.90;99.90;;;;;;5000850;28;20488;-65
2023/09/23 09:32:09;;;;;;;1.53;1.20;;;16.00;99.90;;;;;;5004061;28;20487;-65
2023/09/23 09:34:43;;;;;;;2.70;1.37;;;16.10;99.90;;;;;;5009314;28;20448;-64
2023/09/23 09:37:12;;;;;;;2.67;1.27;;;16.20;99.90;;;;;;4996460;28;20866;-65
2023/09/23 09:39:50;;;;;;;1.77;1.53;;;16.10;99.90;;;;;;5010688;28;20554;-65
2023/09/23 09:42:21;;;;;;;1.07;1.00;;;16.10;99.90;;;;;;4995584;28;20451;-64
2023/09/23 09:44:53;;;;;;;2.20;1.53;;;16.10;99.90;;;;;;5007241;28;20443;-65
2023/09/23 09:47:21;;;;;;;1.70;1.13;;;16.10;99.90;;;;;;4998758;28;20440;-64
2023/09/23 09:49:51;;;;;;;3.83;1.40;;;16.10;99.90;;;;;;5010546;28;21214;-64
2023/09/23 09:52:21;;;;;;;1.60;1.13;;;16.20;99.90;;;;;;4995436;28;20494;-66
2023/09/23 09:54:52;;;;;;;3.57;1.50;;;16.20;99.90;;;;;;5009987;28;20993;-65
2023/09/23 09:57:20;;;;;;;2.37;1.03;;;16.30;99.90;;;;;;5003797;28;20820;-64
2023/09/23 09:59:47;;;;;;;2.30;1.40;;;16.40;99.90;;;;;;5001429;28;20495;-64
2023/09/23 10:02:15;;;;;;;1.30;1.20;;;16.50;99.90;;;;;;5014178;28;20526;-64
2023/09/23 10:04:47;;;;;;;1.47;1.10;;;16.60;99.90;;;;;;4996913;28;20456;-64
2023/09/23 10:07:14;;;;;;;1.40;1.07;;;16.70;99.90;;;;;;5007591;28;20540;-65
2023/09/23 10:09:53;;;;;;;2.20;1.30;;;16.80;99.90;;;;;;5004317;28;20493;-64
2023/09/23 10:12:25;;;;;;;1.73;1.20;;;16.80;99.90;;;;;;5013762;28;20491;-64
2023/09/23 10:14:55;;;;;;;2.83;1.30;;;16.80;99.90;;;;;;4997672;28;20510;-63
2023/09/23 10:17:30;;;;;;;1.07;0.97;;;16.90;99.90;;;;;;5006656;28;20536;-64
2023/09/23 10:19:57;;;;;;;0.70;0.70;;;17.00;99.90;;;;;;5006591;28;20587;-64
2023/09/23 10:22:24;;;;;;;2.73;2.53;;;17.10;99.90;;;;;;5013899;28;20531;-65
2023/09/23 10:25:00;;;;;;;1.77;1.27;;;17.20;99.90;;;;;;4997599;28;20443;-63
2023/09/23 10:27:27;;;;;;;3.97;1.50;;;17.40;99.90;;;;;;5005705;28;20450;-63
2023/09/23 10:29:55;;;;;;;2.97;1.00;;;17.50;99.90;;;;;;5006229;28;20576;-65
2023/09/23 10:32:22;;;;;;;2.10;2.00;;;17.70;99.90;;;;;;5013588;28;20573;-64
2023/09/23 10:34:50;;;;;;;2.93;1.50;;;17.80;99.90;;;;;;4997324;28;20441;-65
2023/09/23 10:37:28;;;;;;;1.63;0.90;;;17.90;99.90;;;;;;5006451;28;20541;-64
2023/09/23 10:39:55;;;;;;;4.00;1.40;;;17.80;99.90;;;;;;5005447;28;20491;-65
2023/09/23 10:42:23;;;;;;;1.73;1.40;;;17.80;99.90;;;;;;5013311;28;20532;-64
2023/09/23 10:44:50;;;;;;;1.07;1.07;;;17.70;99.90;;;;;;4996958;28;20445;-64
2023/09/23 10:47:17;;;;;;;2.27;1.40;;;17.60;99.90;;;;;;5006924;28;20460;-64
2023/09/23 10:49:44;;;;;;;1.80;0.90;;;17.50;99.90;;;;;;5004371;28;20848;-63
2023/09/23 10:52:11;;;;;;;1.53;1.23;;;17.40;99.90;;;;;;5013208;28;20445;-64
2023/09/23 10:54:40;;;;;;;2.37;1.30;;;17.30;99.90;;;;;;4996856;28;20532;-64
2023/09/23 10:57:06;;;;;;;2.00;1.20;;;17.30;99.90;;;;;;5007462;28;20955;-64
2023/09/23 10:59:36;;;;;;;1.27;1.10;;;17.30;99.90;;;;;;5002813;28;21071;-63
2023/09/23 11:02:05;;;;;;;3.60;2.20;;;17.30;99.90;;;;;;5013609;28;20449;-64
2023/09/23 11:04:32;;;;;;;3.27;2.20;;;17.20;99.90;;;;;;4996495;28;20444;-64
2023/09/23 11:06:59;;;;;;;1.37;1.27;;;17.10;99.90;;;;;;5008903;28;20496;-64
2023/09/23 11:09:27;;;;;;;2.63;1.00;;;17.10;99.90;;;;;;5001285;28;20482;-64
2023/09/23 11:11:54;;;;;;;1.50;1.00;;;17.00;99.90;;;;;;5011943;28;20515;-64
2023/09/23 11:14:21;;;;;;;1.70;1.60;;;17.00;99.90;;;;;;4997476;28;20489;-65
2023/09/23 11:16:52;;;;;;;2.87;0.90;;;17.10;99.90;;;;;;5012434;28;20441;-65
2023/09/23 11:19:18;;;;;;;2.33;1.17;;;17.10;99.90;;;;;;5005754;28;20936;-64
2023/09/23 11:21:47;;;;;;;2.30;1.20;;;17.10;99.90;;;;;;5003837;28;20449;-65
2023/09/23 11:24:14;;;;;;;2.70;1.20;;;17.10;99.90;;;;;;4997887;28;20533;-65
2023/09/23 11:26:41;;;;;;;1.90;1.10;;;17.10;99.90;;;;;;5011523;28;20448;-64
2023/09/23 11:29:08;;;;;;;0.90;0.90;;;17.10;99.90;;;;;;5007124;28;20542;-65
2023/09/23 11:31:35;;;;;;;1.20;1.10;;;17.10;99.90;;;;;;5001974;28;20456;-63
2023/09/23 11:34:03;;;;;;;2.70;1.30;;;17.20;99.90;;;;;;5012391;28;20583;-64
2023/09/23 11:36:30;;;;;;;1.40;1.23;;;17.30;99.90;;;;;;4995800;28;20537;-64
2023/09/23 11:38:57;;;;;;;4.57;1.23;;;17.40;99.90;;;;;;5008181;28;20983;-64
2023/09/23 11:41:24;;;;;;;1.60;0.90;;;17.60;99.90;;;;;;5000408;28;20865;-65
2023/09/23 11:43:51;;;;;;;1.97;1.00;;;17.60;99.90;;;;;;5011961;28;20448;-64
2023/09/23 11:46:19;;;;;;;2.73;0.80;;;17.70;99.90;;;;;;4997432;28;20454;-64
2023/09/23 11:48:48;;;;;;;1.60;1.13;;;17.70;99.90;;;;;;5011646;28;20444;-63
2023/09/23 11:51:18;;;;;;;1.37;1.27;;;17.80;99.90;;;;;;5005454;28;20466;-63
2023/09/23 11:53:45;;;;;;;1.63;1.13;;;17.80;99.90;;;;;;5003021;28;20489;-64
2023/09/23 11:56:12;;;;;;;3.27;0.83;;;17.80;99.70;;;;;;4998054;28;20826;-65
2023/09/23 11:58:39;;;;;;;1.93;1.33;;;17.90;99.90;;;;;;5010510;28;20459;-64
2023/09/23 12:01:06;;;;;;;1.63;0.97;;;17.90;99.90;;;;;;5006508;28;20999;-64
2023/09/23 12:03:33;;;;;;;1.20;0.90;;;17.90;99.90;;;;;;5001297;28;20906;-64
2023/09/23 12:06:00;;;;;;;1.37;0.93;;;17.80;99.90;;;;;;5011894;28;20537;-65
2023/09/23 12:08:28;;;;;;;1.43;1.20;;;17.80;99.90;;;;;;4996191;28;20453;-65
2023/09/23 12:10:55;;;;;;;1.43;1.20;;;17.70;99.90;;;;;;5008149;28;20462;-65
2023/09/23 12:13:24;;;;;;;1.40;1.30;;;17.60;99.90;;;;;;4999644;28;20484;-64
2023/09/23 12:15:51;;;;;;;1.90;1.33;;;17.50;99.90;;;;;;5010774;28;20518;-65
2023/09/23 12:18:18;;;;;;;2.13;1.13;;;17.40;99.90;;;;;;5002605;28;20452;-64
2023/09/23 12:20:45;;;;;;;1.10;1.00;;;17.30;99.90;;;;;;5008028;28;20474;-64
2023/09/23 12:23:15;;;;;;;2.63;1.27;;;17.20;99.90;;;;;;5004844;28;20451;-65
2023/09/23 12:25:44;;;;;;;1.60;1.50;;;17.20;99.90;;;;;;5001634;28;20461;-64
2023/09/23 12:28:11;;;;;;;2.07;1.60;;;17.10;99.90;;;;;;5006338;28;21038;-64
2023/09/23 12:30:37;;;;;;;1.43;1.33;;;17.00;99.90;;;;;;5010098;28;20479;-64
2023/09/23 12:33:05;;;;;;;1.37;0.90;;;17.00;99.90;;;;;;4996661;28;20487;-64
2023/09/23 12:35:33;;;;;;;3.40;1.10;;;17.10;99.90;;;;;;5003664;28;20456;-65
2023/09/23 12:38:00;;;;;;;1.33;1.23;;;17.20;99.90;;;;;;4991579;28;20452;-65
2023/09/23 12:40:27;;;;;;;1.10;1.10;;;17.30;99.90;;;;;;5007638;28;20580;-65
2023/09/23 12:42:56;;;;;;;1.60;1.20;;;17.20;99.90;;;;;;4995272;28;20449;-64
2023/09/23 12:45:23;;;;;;;1.97;1.60;;;17.20;99.90;;;;;;5011343;28;20453;-65
2023/09/23 12:47:50;;;;;;;2.00;1.00;;;17.20;99.90;;;;;;4999343;28;20457;-64
2023/09/23 12:50:17;;;;;;;3.10;1.23;;;17.10;99.90;;;;;;5006658;28;20467;-65
2023/09/23 12:52:44;;;;;;;1.57;1.20;;;17.00;99.90;;;;;;5008791;28;20450;-65
2023/09/23 12:55:11;;;;;;;1.10;1.00;;;17.00;99.90;;;;;;4997804;28;20462;-64